createdAt,value
2019-03-30T00:01:00.992Z,5.95
2019-03-30T00:03:32.748Z,5.96
2019-03-30T00:06:04.123Z,5.95
2019-03-30T00:08:37.358Z,5.93
2019-03-30T00:11:08.575Z,5.84
2019-03-30T00:13:39.891Z,5.82
2019-03-30T00:16:11.228Z,5.82
2019-03-30T00:18:43.566Z,5.80
2019-03-30T00:21:15.983Z,5.71
2019-03-30T00:23:48.154Z,5.70
2019-03-30T00:26:19.414Z,5.67
2019-03-30T00:28:52.114Z,5.64
2019-03-30T00:31:23.344Z,5.68
2019-03-30T00:33:54.577Z,5.67
2019-03-30T00:36:25.809Z,5.75
2019-03-30T00:38:58.695Z,5.74
2019-03-30T00:41:29.895Z,5.82
2019-03-30T00:44:01.124Z,5.85
2019-03-30T00:46:32.636Z,5.83
2019-03-30T00:49:03.946Z,5.87
2019-03-30T00:51:35.290Z,5.83
2019-03-30T00:54:06.596Z,5.83
2019-03-30T00:56:37.885Z,5.77
2019-03-30T00:59:09.009Z,5.68
2019-03-30T01:01:40.369Z,5.66
2019-03-30T01:04:12.727Z,5.62
2019-03-30T01:06:44.048Z,5.64
2019-03-30T01:09:15.369Z,5.58
2019-03-30T01:11:46.720Z,5.55
2019-03-30T01:14:20.099Z,5.54
2019-03-30T01:16:51.379Z,5.47
2019-03-30T01:19:22.724Z,5.52
2019-03-30T01:21:56.232Z,5.50
2019-03-30T01:24:27.167Z,5.43
2019-03-30T01:26:58.965Z,5.45
2019-03-30T01:29:30.270Z,5.35
2019-03-30T01:32:02.620Z,5.25
2019-03-30T01:34:35.996Z,5.14
2019-03-30T01:37:07.400Z,5.05
2019-03-30T01:39:38.706Z,5.02
2019-03-30T01:42:10.082Z,5.03
2019-03-30T01:44:41.418Z,5.03
2019-03-30T01:47:16.106Z,5.00
2019-03-30T01:49:47.450Z,4.97
2019-03-30T01:52:18.816Z,5.01
2019-03-30T01:54:50.141Z,4.96
2019-03-30T01:57:21.467Z,4.97
2019-03-30T01:59:53.723Z,4.97
2019-03-30T02:02:26.032Z,4.93
2019-03-30T02:04:57.419Z,4.92
2019-03-30T02:07:28.824Z,4.92
2019-03-30T02:10:00.380Z,4.87
2019-03-30T02:12:31.670Z,4.82
2019-03-30T02:15:03.035Z,4.80
2019-03-30T02:17:34.366Z,4.75
2019-03-30T02:20:07.607Z,4.77
2019-03-30T02:22:39.997Z,4.79
2019-03-30T02:25:11.223Z,4.76
2019-03-30T02:27:42.514Z,4.73
2019-03-30T02:30:13.897Z,4.69
2019-03-30T02:32:45.241Z,4.66
2019-03-30T02:35:18.912Z,4.61
2019-03-30T02:37:50.472Z,4.54
2019-03-30T02:40:23.093Z,4.60
2019-03-30T02:42:54.418Z,4.50
2019-03-30T02:45:27.970Z,4.52
2019-03-30T02:48:00.422Z,4.44
2019-03-30T02:50:47.767Z,4.44
2019-03-30T02:53:04.847Z,4.43
2019-03-30T02:55:38.243Z,4.35
2019-03-30T02:58:09.497Z,4.32
2019-03-30T03:00:40.809Z,4.32
2019-03-30T03:03:12.092Z,4.25
2019-03-30T03:05:43.374Z,4.21
2019-03-30T03:08:14.710Z,4.21
2019-03-30T03:10:46.010Z,4.20
2019-03-30T03:13:17.303Z,4.26
2019-03-30T03:15:49.062Z,4.20
2019-03-30T03:18:22.395Z,4.24
2019-03-30T03:21:07.194Z,4.25
2019-03-30T03:23:28.626Z,4.29
2019-03-30T03:25:59.951Z,4.31
2019-03-30T03:28:31.246Z,4.30
2019-03-30T03:31:02.591Z,4.29
2019-03-30T03:33:35.057Z,4.35
2019-03-30T03:36:06.378Z,4.32
2019-03-30T03:38:38.785Z,4.35
2019-03-30T03:41:10.125Z,4.37
2019-03-30T03:43:41.411Z,4.38
2019-03-30T03:46:12.777Z,4.41
2019-03-30T03:48:44.010Z,4.41
2019-03-30T03:51:25.781Z,4.34
2019-03-30T03:53:48.343Z,4.35
2019-03-30T03:56:20.042Z,4.38
2019-03-30T03:58:51.149Z,4.49
2019-03-30T04:01:22.498Z,4.68
2019-03-30T04:03:54.889Z,5.06
2019-03-30T04:06:26.182Z,5.41
2019-03-30T04:08:57.806Z,5.66
2019-03-30T04:11:29.052Z,5.72
2019-03-30T04:14:01.062Z,5.90
2019-03-30T04:16:32.421Z,6.37
2019-03-30T04:19:03.715Z,7.02
2019-03-30T04:21:44.256Z,7.04
2019-03-30T04:24:09.069Z,7.68
2019-03-30T04:26:41.377Z,7.68
2019-03-30T04:29:12.676Z,8.15
2019-03-30T04:31:44.008Z,8.21
2019-03-30T04:34:15.397Z,8.27
2019-03-30T04:36:46.598Z,8.23
2019-03-30T04:39:19.496Z,8.82
2019-03-30T04:41:50.813Z,9.01
2019-03-30T04:44:22.155Z,9.68
2019-03-30T04:46:53.481Z,9.84
2019-03-30T04:49:24.851Z,10.49
2019-03-30T04:51:57.795Z,11.02
2019-03-30T04:54:29.219Z,11.52
2019-03-30T04:57:03.401Z,11.81
2019-03-30T04:59:35.674Z,11.52
2019-03-30T05:02:08.610Z,12.33
2019-03-30T05:04:40.831Z,12.10
2019-03-30T05:07:12.219Z,12.48
2019-03-30T05:09:43.524Z,12.11
2019-03-30T05:12:14.882Z,12.54
2019-03-30T05:14:46.213Z,12.56
2019-03-30T05:17:18.000Z,12.73
2019-03-30T05:19:49.323Z,12.66
2019-03-30T05:22:20.632Z,13.34
2019-03-30T05:24:51.986Z,13.79
2019-03-30T05:27:23.398Z,13.44
2019-03-30T05:29:54.925Z,13.58
2019-03-30T05:32:26.213Z,13.58
2019-03-30T05:34:57.541Z,14.01
2019-03-30T05:37:28.941Z,14.24
2019-03-30T05:40:00.373Z,14.24
2019-03-30T05:42:31.687Z,14.27
2019-03-30T05:45:03.029Z,15.56
2019-03-30T05:47:35.395Z,15.44
2019-03-30T05:50:07.144Z,15.26
2019-03-30T05:52:39.699Z,14.88
2019-03-30T05:55:12.219Z,15.22
2019-03-30T05:57:43.912Z,16.31
2019-03-30T06:00:16.782Z,15.72
2019-03-30T06:02:48.195Z,16.08
2019-03-30T06:05:21.698Z,16.32
2019-03-30T06:07:52.987Z,16.18
2019-03-30T06:10:24.308Z,16.81
2019-03-30T06:12:57.073Z,16.83
2019-03-30T06:15:28.318Z,17.47
2019-03-30T06:18:00.832Z,17.51
2019-03-30T06:20:32.157Z,17.90
2019-03-30T06:23:03.498Z,18.09
2019-03-30T06:25:35.569Z,16.85
2019-03-30T06:28:06.900Z,16.61
2019-03-30T06:30:40.761Z,17.55
2019-03-30T06:33:12.122Z,18.34
2019-03-30T06:35:43.433Z,17.49
2019-03-30T06:38:14.739Z,17.40
2019-03-30T06:40:46.098Z,18.01
2019-03-30T06:43:17.462Z,17.51
2019-03-30T06:45:48.827Z,18.15
2019-03-30T06:48:20.270Z,18.20
2019-03-30T06:50:51.623Z,18.62
2019-03-30T06:53:23.099Z,18.29
2019-03-30T06:55:55.457Z,18.83
2019-03-30T06:58:26.812Z,18.22
2019-03-30T07:00:58.257Z,18.76
2019-03-30T07:03:29.633Z,18.83
2019-03-30T07:06:01.010Z,20.22
2019-03-30T07:08:32.261Z,18.97
2019-03-30T07:11:03.614Z,19.32
2019-03-30T07:13:35.999Z,18.88
2019-03-30T07:16:07.512Z,18.74
2019-03-30T07:18:38.854Z,18.91
2019-03-30T07:21:11.185Z,19.87
2019-03-30T07:23:42.563Z,20.51
2019-03-30T07:26:13.983Z,19.01
2019-03-30T07:28:47.089Z,19.95
2019-03-30T07:31:18.490Z,19.88
2019-03-30T07:33:49.962Z,20.13
2019-03-30T07:36:21.245Z,20.58
2019-03-30T07:38:52.580Z,19.64
2019-03-30T07:41:25.019Z,20.36
2019-03-30T07:43:56.348Z,19.77
2019-03-30T07:46:27.679Z,19.15
2019-03-30T07:48:59.424Z,19.35
2019-03-30T07:51:33.499Z,18.96
2019-03-30T07:54:04.718Z,20.33
2019-03-30T07:56:36.143Z,19.30
2019-03-30T07:59:07.452Z,18.38
2019-03-30T08:01:39.279Z,17.71
2019-03-30T08:04:10.687Z,16.72
2019-03-30T08:06:53.566Z,15.77
2019-03-30T08:09:24.689Z,15.74
2019-03-30T08:11:57.422Z,15.25
2019-03-30T08:14:28.850Z,15.40
2019-03-30T08:17:00.216Z,15.17
2019-03-30T08:19:31.519Z,14.31
2019-03-30T08:22:02.957Z,14.49
2019-03-30T08:24:35.576Z,15.42
2019-03-30T08:27:11.094Z,15.17
2019-03-30T08:29:51.023Z,14.73
2019-03-30T08:32:22.671Z,14.81
2019-03-30T08:34:55.976Z,15.01
2019-03-30T08:37:30.805Z,14.92
2019-03-30T08:40:03.933Z,15.33
2019-03-30T08:42:46.627Z,14.74
2019-03-30T08:45:21.632Z,15.20
2019-03-30T08:47:53.641Z,15.21
2019-03-30T08:50:28.380Z,14.84
2019-03-30T08:53:02.777Z,14.86
2019-03-30T08:55:34.394Z,14.81
2019-03-30T08:58:09.804Z,15.10
2019-03-30T09:00:43.487Z,15.44
2019-03-30T09:03:20.187Z,14.68
2019-03-30T09:05:51.728Z,15.38
2019-03-30T09:08:24.277Z,15.53
2019-03-30T09:10:56.752Z,15.79
2019-03-30T09:13:28.223Z,15.61
2019-03-30T09:15:59.596Z,15.73
2019-03-30T09:18:31.083Z,15.50
2019-03-30T09:21:02.456Z,15.44
2019-03-30T09:23:33.907Z,15.17
2019-03-30T09:26:06.383Z,15.29
2019-03-30T09:28:37.712Z,15.43
2019-03-30T09:31:09.148Z,15.58
2019-03-30T09:33:40.496Z,15.06
2019-03-30T09:36:11.942Z,14.91
2019-03-30T09:38:46.257Z,15.18
2019-03-30T09:41:17.558Z,14.70
2019-03-30T09:43:48.893Z,14.52
2019-03-30T09:46:21.347Z,14.44
2019-03-30T09:48:56.541Z,14.41
2019-03-30T09:51:29.246Z,14.14
2019-03-30T09:54:23.161Z,14.49
2019-03-30T09:56:44.778Z,14.16
2019-03-30T09:59:16.526Z,14.34
2019-03-30T10:01:53.736Z,15.02
2019-03-30T10:04:28.272Z,15.16
2019-03-30T10:07:00.759Z,15.29
2019-03-30T10:09:32.222Z,15.17
2019-03-30T10:12:03.892Z,14.73
2019-03-30T10:14:35.332Z,14.47
2019-03-30T10:17:08.054Z,15.33
2019-03-30T10:19:39.459Z,14.97
2019-03-30T10:22:12.028Z,14.78
2019-03-30T10:24:44.428Z,14.43
2019-03-30T10:27:15.913Z,14.69
2019-03-30T10:29:51.028Z,14.83
2019-03-30T10:32:26.843Z,14.72
2019-03-30T10:35:01.079Z,14.31
2019-03-30T10:37:35.342Z,14.61
2019-03-30T10:40:08.443Z,14.58
2019-03-30T10:42:39.994Z,14.35
2019-03-30T10:45:11.513Z,14.39
2019-03-30T10:47:42.923Z,14.74
2019-03-30T10:50:16.363Z,14.43
2019-03-30T10:52:47.896Z,14.16
2019-03-30T10:55:19.320Z,14.41
2019-03-30T10:57:50.694Z,14.81
2019-03-30T11:00:40.679Z,14.86
2019-03-30T11:03:13.268Z,14.96
2019-03-30T11:05:44.772Z,14.81
2019-03-30T11:08:16.382Z,15.02
2019-03-30T11:10:49.361Z,14.60
2019-03-30T11:13:21.824Z,14.93
2019-03-30T11:15:53.382Z,14.96
2019-03-30T11:18:25.875Z,14.95
2019-03-30T11:20:57.317Z,14.81
2019-03-30T11:23:28.707Z,14.43
2019-03-30T11:26:00.125Z,14.28
2019-03-30T11:28:31.511Z,14.00
2019-03-30T11:31:05.370Z,14.06
2019-03-30T11:33:36.135Z,13.92
2019-03-30T11:36:07.594Z,14.09
2019-03-30T11:38:39.998Z,14.03
2019-03-30T11:41:11.341Z,14.04
2019-03-30T11:43:42.741Z,13.85
2019-03-30T11:46:14.313Z,14.33
2019-03-30T11:48:45.810Z,14.39
2019-03-30T11:51:17.219Z,14.66
2019-03-30T11:53:49.711Z,14.47
2019-03-30T11:56:23.647Z,14.68
2019-03-30T11:58:56.098Z,14.38
2019-03-30T12:01:28.919Z,14.45
2019-03-30T12:04:01.661Z,15.18
2019-03-30T12:06:35.285Z,15.07
2019-03-30T12:09:08.409Z,15.06
2019-03-30T12:11:40.847Z,14.96
2019-03-30T12:14:13.537Z,14.75
2019-03-30T12:16:45.104Z,15.06
2019-03-30T12:19:16.470Z,14.96
2019-03-30T12:21:47.846Z,14.98
2019-03-30T12:24:20.231Z,15.47
2019-03-30T12:26:51.708Z,14.85
2019-03-30T12:29:24.143Z,14.27
2019-03-30T12:31:55.501Z,14.41
2019-03-30T12:34:26.946Z,13.92
2019-03-30T12:36:58.290Z,13.88
2019-03-30T12:39:29.685Z,13.95
2019-03-30T12:42:03.407Z,13.92
2019-03-30T12:44:35.913Z,13.80
2019-03-30T12:47:10.220Z,13.90
2019-03-30T12:49:45.214Z,14.04
2019-03-30T12:52:16.658Z,14.08
2019-03-30T12:54:48.018Z,13.80
2019-03-30T12:57:19.778Z,13.81
2019-03-30T12:59:52.320Z,13.91
2019-03-30T13:02:26.409Z,14.14
2019-03-30T13:04:57.896Z,14.17
2019-03-30T13:07:32.129Z,13.51
2019-03-30T13:10:06.411Z,13.60
2019-03-30T13:12:39.397Z,13.42
2019-03-30T13:15:10.741Z,13.91
2019-03-30T13:17:42.034Z,13.90
2019-03-30T13:20:16.698Z,13.77
2019-03-30T13:22:48.074Z,14.07
2019-03-30T13:25:19.591Z,13.94
2019-03-30T13:27:53.415Z,14.05
2019-03-30T13:30:24.126Z,13.78
2019-03-30T13:32:55.438Z,13.89
2019-03-30T13:35:26.819Z,14.14
2019-03-30T13:37:58.366Z,14.28
2019-03-30T13:40:31.320Z,14.58
2019-03-30T13:43:04.655Z,14.58
2019-03-30T13:45:36.011Z,14.06
2019-03-30T13:48:11.728Z,14.03
2019-03-30T13:50:43.420Z,13.88
2019-03-30T13:53:14.855Z,13.79
2019-03-30T13:55:46.332Z,13.58
2019-03-30T13:58:17.677Z,13.60
2019-03-30T14:00:49.041Z,13.70
2019-03-30T14:03:20.516Z,13.74
2019-03-30T14:05:51.823Z,13.73
2019-03-30T14:08:23.138Z,13.69
2019-03-30T14:10:56.507Z,14.01
2019-03-30T14:13:27.969Z,13.93
2019-03-30T14:15:59.961Z,13.94
2019-03-30T14:18:31.360Z,13.96
2019-03-30T14:21:04.976Z,14.05
2019-03-30T14:23:37.383Z,14.02
2019-03-30T14:26:08.714Z,14.07
2019-03-30T14:28:40.683Z,13.79
2019-03-30T14:31:13.273Z,13.86
2019-03-30T14:33:44.720Z,13.67
2019-03-30T14:36:17.215Z,13.52
2019-03-30T14:38:50.100Z,13.59
2019-03-30T14:41:21.567Z,13.76
2019-03-30T14:43:52.952Z,13.85
2019-03-30T14:46:24.398Z,13.86
2019-03-30T14:48:57.563Z,13.66
2019-03-30T14:51:28.961Z,13.75
2019-03-30T14:54:00.324Z,13.54
2019-03-30T14:56:44.989Z,13.37
2019-03-30T14:59:10.388Z,13.14
2019-03-30T15:01:44.203Z,13.31
2019-03-30T15:04:16.094Z,13.17
2019-03-30T15:06:50.891Z,13.22
2019-03-30T15:09:28.322Z,13.11
2019-03-30T15:12:03.256Z,12.96
2019-03-30T15:14:40.387Z,12.95
2019-03-30T15:17:12.215Z,12.80
2019-03-30T15:19:47.608Z,12.62
2019-03-30T15:22:20.681Z,12.68
2019-03-30T15:24:52.324Z,12.84
2019-03-30T15:27:29.468Z,12.71
2019-03-30T15:30:01.345Z,12.66
2019-03-30T15:32:44.492Z,12.65
2019-03-30T15:35:17.320Z,12.50
2019-03-30T15:37:48.756Z,12.32
2019-03-30T15:40:23.303Z,12.28
2019-03-30T15:43:00.691Z,12.37
2019-03-30T15:45:36.849Z,12.43
2019-03-30T15:48:08.835Z,12.33
2019-03-30T15:50:41.731Z,12.39
2019-03-30T15:53:13.151Z,12.51
2019-03-30T15:55:44.677Z,12.29
2019-03-30T15:58:17.057Z,12.22
2019-03-30T16:00:49.782Z,12.16
2019-03-30T16:03:21.393Z,12.25
2019-03-30T16:05:52.746Z,12.17
2019-03-30T16:08:24.219Z,11.86
2019-03-30T16:10:55.684Z,11.93
2019-03-30T16:13:27.055Z,11.99
2019-03-30T16:15:59.004Z,11.93
2019-03-30T16:18:32.540Z,11.94
2019-03-30T16:21:05.921Z,11.79
2019-03-30T16:23:37.860Z,11.75
2019-03-30T16:26:09.510Z,11.74
2019-03-30T16:28:46.169Z,11.95
2019-03-30T16:31:18.039Z,11.90
2019-03-30T16:33:50.280Z,11.76
2019-03-30T16:36:29.206Z,11.86
2019-03-30T16:39:00.565Z,11.64
2019-03-30T16:41:32.640Z,11.54
2019-03-30T16:44:08.612Z,11.45
2019-03-30T16:46:39.956Z,11.33
2019-03-30T16:49:11.395Z,11.46
2019-03-30T16:51:42.953Z,11.32
2019-03-30T16:54:14.228Z,11.27
2019-03-30T16:56:46.592Z,11.21
2019-03-30T16:59:17.929Z,11.17
2019-03-30T17:01:52.505Z,11.14
2019-03-30T17:04:25.571Z,11.92
2019-03-30T17:06:57.198Z,11.40
2019-03-30T17:09:28.541Z,11.25
2019-03-30T17:12:03.681Z,11.46
2019-03-30T17:14:46.913Z,11.50
2019-03-30T17:17:21.165Z,11.72
2019-03-30T17:19:58.536Z,12.00
2019-03-30T17:22:31.005Z,11.69
2019-03-30T17:25:02.416Z,11.53
2019-03-30T17:27:36.908Z,11.29
2019-03-30T17:30:11.950Z,11.04
2019-03-30T17:32:46.851Z,11.44
2019-03-30T17:35:21.010Z,11.14
2019-03-30T17:37:52.418Z,10.88
2019-03-30T17:40:23.911Z,11.19
2019-03-30T17:42:55.306Z,10.94
2019-03-30T17:45:26.752Z,11.07
2019-03-30T17:47:58.061Z,11.02
2019-03-30T17:50:29.506Z,11.27
2019-03-30T17:53:00.852Z,10.86
2019-03-30T17:55:34.392Z,11.13
2019-03-30T17:58:13.377Z,10.59
2019-03-30T18:00:51.618Z,10.51
2019-03-30T18:03:28.692Z,10.56
2019-03-30T18:06:03.004Z,11.14
2019-03-30T18:08:34.347Z,10.83
2019-03-30T18:11:05.596Z,11.38
2019-03-30T18:13:37.115Z,11.39
2019-03-30T18:16:09.766Z,11.44
2019-03-30T18:18:41.108Z,11.27
2019-03-30T18:21:13.514Z,11.43
2019-03-30T18:23:47.481Z,11.11
2019-03-30T18:26:17.775Z,10.66
2019-03-30T18:28:49.076Z,11.09
2019-03-30T18:31:20.613Z,11.28
2019-03-30T18:33:56.817Z,10.76
2019-03-30T18:36:30.185Z,10.09
2019-03-30T18:39:09.339Z,9.75
2019-03-30T18:41:36.149Z,9.55
2019-03-30T18:44:07.507Z,9.29
2019-03-30T18:46:42.814Z,9.15
2019-03-30T18:49:14.213Z,9.09
2019-03-30T18:51:48.769Z,9.01
2019-03-30T18:54:19.953Z,8.97
2019-03-30T18:56:57.593Z,8.92
2019-03-30T18:59:25.264Z,8.90
2019-03-30T19:01:57.696Z,8.88
2019-03-30T19:04:28.944Z,8.92
2019-03-30T19:07:00.874Z,8.77
2019-03-30T19:09:34.291Z,8.71
2019-03-30T19:12:05.687Z,8.65
2019-03-30T19:14:36.988Z,8.60
2019-03-30T19:17:08.332Z,8.60
2019-03-30T19:19:39.742Z,8.48
2019-03-30T19:22:11.097Z,8.45
2019-03-30T19:24:42.485Z,8.36
2019-03-30T19:27:13.801Z,8.35
2019-03-30T19:29:45.145Z,8.29
2019-03-30T19:32:16.478Z,8.19
2019-03-30T19:34:47.776Z,8.19
2019-03-30T19:37:19.105Z,8.23
2019-03-30T19:39:50.423Z,8.14
2019-03-30T19:42:22.272Z,8.14
2019-03-30T19:44:53.582Z,8.16
2019-03-30T19:47:24.926Z,8.15
2019-03-30T19:49:56.236Z,8.17
2019-03-30T19:52:39.217Z,8.13
2019-03-30T19:55:00.590Z,8.01
2019-03-30T19:57:31.901Z,7.98
2019-03-30T20:00:04.800Z,7.95
2019-03-30T20:02:35.983Z,7.95
2019-03-30T20:05:07.177Z,7.95
2019-03-30T20:07:38.494Z,7.93
2019-03-30T20:10:09.792Z,7.86
2019-03-30T20:12:40.979Z,7.76
2019-03-30T20:15:13.337Z,7.79
2019-03-30T20:17:44.643Z,7.79
2019-03-30T20:20:15.953Z,7.80
2019-03-30T20:22:50.845Z,7.71
2019-03-30T20:25:25.790Z,7.71
2019-03-30T20:27:56.032Z,7.72
2019-03-30T20:30:27.310Z,7.59
2019-03-30T20:32:58.591Z,7.59
2019-03-30T20:35:29.946Z,7.65
2019-03-30T20:38:01.226Z,7.71
2019-03-30T20:40:32.499Z,7.65
2019-03-30T20:43:03.838Z,7.60
2019-03-30T20:45:35.149Z,7.60
2019-03-30T20:48:07.679Z,7.56
2019-03-30T20:50:39.880Z,7.57
2019-03-30T20:53:11.195Z,7.52
2019-03-30T20:55:42.542Z,7.59
2019-03-30T20:58:13.896Z,7.54
2019-03-30T21:00:45.234Z,7.46
2019-03-30T21:03:17.609Z,7.41
2019-03-30T21:05:48.916Z,7.41
2019-03-30T21:08:20.193Z,7.36
2019-03-30T21:10:51.508Z,7.48
2019-03-30T21:13:22.838Z,7.52
2019-03-30T21:15:59.796Z,7.49
2019-03-30T21:18:31.128Z,7.41
2019-03-30T21:21:03.936Z,7.29
2019-03-30T21:23:35.261Z,7.29
2019-03-30T21:26:07.555Z,7.17
2019-03-30T21:28:38.907Z,7.20
2019-03-30T21:31:11.359Z,7.27
2019-03-30T21:33:42.791Z,7.26
2019-03-30T21:36:15.201Z,7.27
2019-03-30T21:38:47.475Z,7.20
2019-03-30T21:41:18.762Z,7.20
2019-03-30T21:43:50.163Z,7.04
2019-03-30T21:46:21.479Z,7.01
2019-03-30T21:48:52.821Z,6.95
2019-03-30T21:51:24.180Z,6.87
2019-03-30T21:53:55.406Z,6.78
2019-03-30T21:56:26.614Z,6.78
2019-03-30T21:58:57.949Z,6.75
2019-03-30T22:01:29.214Z,6.76
2019-03-30T22:04:00.501Z,6.76
2019-03-30T22:06:31.811Z,6.73
2019-03-30T22:09:05.588Z,6.68
2019-03-30T22:11:36.914Z,6.62
2019-03-30T22:14:09.878Z,6.64
2019-03-30T22:16:41.119Z,6.66
2019-03-30T22:19:12.757Z,6.81
2019-03-30T22:21:44.073Z,6.63
2019-03-30T22:24:15.530Z,6.54
2019-03-30T22:26:46.909Z,6.50
2019-03-30T22:29:18.239Z,6.42
2019-03-30T22:31:50.642Z,6.33
2019-03-30T22:34:22.009Z,6.26
2019-03-30T22:36:53.318Z,6.18
2019-03-30T22:39:24.653Z,6.17
2019-03-30T22:41:55.945Z,6.13
2019-03-30T22:44:27.407Z,6.13
2019-03-30T22:46:58.739Z,6.06
2019-03-30T22:49:30.088Z,6.12
2019-03-30T22:52:01.406Z,6.05
2019-03-30T22:54:32.765Z,6.02
2019-03-30T22:57:04.036Z,6.03
2019-03-30T22:59:35.427Z,5.96
2019-03-30T23:02:06.760Z,5.93
2019-03-30T23:04:38.074Z,5.89
2019-03-30T23:07:09.396Z,5.82
2019-03-30T23:09:40.689Z,5.77
2019-03-30T23:12:11.983Z,5.64
2019-03-30T23:14:43.334Z,5.64
2019-03-30T23:17:14.685Z,5.60
2019-03-30T23:19:46.009Z,5.57
2019-03-30T23:22:17.338Z,5.54
2019-03-30T23:24:48.655Z,5.61
2019-03-30T23:27:20.026Z,5.53
2019-03-30T23:29:52.784Z,5.52
2019-03-30T23:32:27.173Z,5.54
2019-03-30T23:34:58.469Z,5.55
2019-03-30T23:37:29.728Z,5.54
2019-03-30T23:40:02.437Z,5.48
2019-03-30T23:42:33.753Z,5.47
2019-03-30T23:45:05.666Z,5.41
2019-03-30T23:47:36.979Z,5.41
2019-03-30T23:50:08.738Z,5.28
2019-03-30T23:52:40.298Z,5.32
2019-03-30T23:55:11.588Z,5.31
2019-03-30T23:57:42.895Z,5.29
